sensor_id;sensor_type;location;lat;lon;timestamp;P1;durP1;ratioP1;P2;durP2;ratioP2
70335;SDS011;57756;47.408;18.940;2022-08-18T00:01:16;4.32;;;2.58;;
70335;SDS011;57756;47.408;18.940;2022-08-18T00:03:43;5.60;;;2.77;;
70335;SDS011;57756;47.408;18.940;2022-08-18T00:06:09;4.07;;;2.47;;
70335;SDS011;57756;47.408;18.940;2022-08-18T00:08:35;4.88;;;2.90;;
70335;SDS011;57756;47.408;18.940;2022-08-18T00:11:01;6.03;;;2.63;;
70335;SDS011;57756;47.408;18.940;2022-08-18T00:13:27;5.72;;;2.50;;
70335;SDS011;57756;47.408;18.940;2022-08-18T00:15:52;5.17;;;2.70;;
70335;SDS011;57756;47.408;18.940;2022-08-18T00:18:18;5.50;;;3.13;;
70335;SDS011;57756;47.408;18.940;2022-08-18T00:20:44;5.65;;;3.35;;
70335;SDS011;57756;47.408;18.940;2022-08-18T00:23:10;6.13;;;3.17;;
70335;SDS011;57756;47.408;18.940;2022-08-18T00:25:35;4.88;;;2.95;;
70335;SDS011;57756;47.408;18.940;2022-08-18T00:28:01;5.20;;;2.97;;
70335;SDS011;57756;47.408;18.940;2022-08-18T00:30:27;4.65;;;2.92;;
70335;SDS011;57756;47.408;18.940;2022-08-18T00:32:54;6.55;;;3.17;;
70335;SDS011;57756;47.408;18.940;2022-08-18T00:35:28;5.17;;;3.10;;
70335;SDS011;57756;47.408;18.940;2022-08-18T00:37:56;7.50;;;4.13;;
70335;SDS011;57756;47.408;18.940;2022-08-18T00:40:25;6.15;;;3.40;;
70335;SDS011;57756;47.408;18.940;2022-08-18T00:42:55;6.60;;;3.58;;
70335;SDS011;57756;47.408;18.940;2022-08-18T00:45:31;5.57;;;3.30;;
70335;SDS011;57756;47.408;18.940;2022-08-18T00:48:01;7.83;;;3.80;;
70335;SDS011;57756;47.408;18.940;2022-08-18T00:50:30;6.53;;;3.65;;
70335;SDS011;57756;47.408;18.940;2022-08-18T00:53:10;5.78;;;3.60;;
70335;SDS011;57756;47.408;18.940;2022-08-18T00:55:39;7.32;;;3.92;;
70335;SDS011;57756;47.408;18.940;2022-08-18T00:58:10;7.40;;;3.55;;
70335;SDS011;57756;47.408;18.940;2022-08-18T01:00:42;7.00;;;4.00;;
70335;SDS011;57756;47.408;18.940;2022-08-18T01:03:11;6.03;;;3.90;;
70335;SDS011;57756;47.408;18.940;2022-08-18T01:05:41;7.47;;;3.42;;
70335;SDS011;57756;47.408;18.940;2022-08-18T01:08:12;5.80;;;4.18;;
70335;SDS011;57756;47.408;18.940;2022-08-18T01:10:39;6.40;;;3.85;;
70335;SDS011;57756;47.408;18.940;2022-08-18T01:13:06;6.00;;;3.93;;
70335;SDS011;57756;47.408;18.940;2022-08-18T01:15:32;6.78;;;4.00;;
70335;SDS011;57756;47.408;18.940;2022-08-18T01:18:00;6.18;;;4.35;;
70335;SDS011;57756;47.408;18.940;2022-08-18T01:20:57;8.30;;;4.10;;
70335;SDS011;57756;47.408;18.940;2022-08-18T01:24:14;6.85;;;3.88;;
70335;SDS011;57756;47.408;18.940;2022-08-18T01:26:41;7.00;;;4.60;;
70335;SDS011;57756;47.408;18.940;2022-08-18T01:29:13;8.10;;;4.15;;
70335;SDS011;57756;47.408;18.940;2022-08-18T01:31:42;6.13;;;4.20;;
70335;SDS011;57756;47.408;18.940;2022-08-18T01:34:14;7.35;;;4.32;;
70335;SDS011;57756;47.408;18.940;2022-08-18T01:36:41;7.20;;;4.28;;
70335;SDS011;57756;47.408;18.940;2022-08-18T01:39:08;6.33;;;4.00;;
70335;SDS011;57756;47.408;18.940;2022-08-18T01:41:35;8.80;;;4.57;;
70335;SDS011;57756;47.408;18.940;2022-08-18T01:44:01;8.65;;;5.10;;
70335;SDS011;57756;47.408;18.940;2022-08-18T01:46:28;7.60;;;4.00;;
70335;SDS011;57756;47.408;18.940;2022-08-18T01:48:56;7.35;;;4.18;;
70335;SDS011;57756;47.408;18.940;2022-08-18T01:51:26;7.15;;;4.57;;
70335;SDS011;57756;47.408;18.940;2022-08-18T01:53:53;6.43;;;4.65;;
70335;SDS011;57756;47.408;18.940;2022-08-18T01:56:20;7.03;;;4.70;;
70335;SDS011;57756;47.408;18.940;2022-08-18T01:58:46;6.67;;;4.50;;
70335;SDS011;57756;47.408;18.940;2022-08-18T02:01:12;7.63;;;4.88;;
70335;SDS011;57756;47.408;18.940;2022-08-18T02:03:42;7.53;;;4.78;;
70335;SDS011;57756;47.408;18.940;2022-08-18T02:06:12;7.60;;;5.37;;
70335;SDS011;57756;47.408;18.940;2022-08-18T02:08:39;9.20;;;4.78;;
70335;SDS011;57756;47.408;18.940;2022-08-18T02:11:06;7.95;;;5.05;;
70335;SDS011;57756;47.408;18.940;2022-08-18T02:13:32;8.38;;;5.18;;
70335;SDS011;57756;47.408;18.940;2022-08-18T02:15:58;13.82;;;5.53;;
70335;SDS011;57756;47.408;18.940;2022-08-18T02:18:25;14.77;;;5.90;;
70335;SDS011;57756;47.408;18.940;2022-08-18T02:20:54;12.82;;;5.28;;
70335;SDS011;57756;47.408;18.940;2022-08-18T02:23:20;10.30;;;6.13;;
70335;SDS011;57756;47.408;18.940;2022-08-18T02:25:46;9.40;;;5.30;;
70335;SDS011;57756;47.408;18.940;2022-08-18T02:28:12;9.03;;;5.07;;
70335;SDS011;57756;47.408;18.940;2022-08-18T02:30:37;8.83;;;5.47;;
70335;SDS011;57756;47.408;18.940;2022-08-18T02:33:04;7.50;;;5.00;;
70335;SDS011;57756;47.408;18.940;2022-08-18T02:35:31;8.50;;;4.97;;
70335;SDS011;57756;47.408;18.940;2022-08-18T02:37:57;10.88;;;5.38;;
70335;SDS011;57756;47.408;18.940;2022-08-18T02:40:23;9.80;;;5.25;;
70335;SDS011;57756;47.408;18.940;2022-08-18T02:42:49;9.00;;;5.60;;
70335;SDS011;57756;47.408;18.940;2022-08-18T02:45:16;8.48;;;5.25;;
70335;SDS011;57756;47.408;18.940;2022-08-18T02:47:42;8.40;;;5.10;;
70335;SDS011;57756;47.408;18.940;2022-08-18T02:50:08;8.43;;;5.33;;
70335;SDS011;57756;47.408;18.940;2022-08-18T02:52:34;7.60;;;4.95;;
70335;SDS011;57756;47.408;18.940;2022-08-18T02:55:00;8.00;;;5.43;;
70335;SDS011;57756;47.408;18.940;2022-08-18T02:57:26;8.98;;;5.55;;
70335;SDS011;57756;47.408;18.940;2022-08-18T02:59:52;7.82;;;5.22;;
70335;SDS011;57756;47.408;18.940;2022-08-18T03:02:18;8.47;;;5.30;;
70335;SDS011;57756;47.408;18.940;2022-08-18T03:04:44;8.60;;;5.23;;
70335;SDS011;57756;47.408;18.940;2022-08-18T03:07:11;9.07;;;5.05;;
70335;SDS011;57756;47.408;18.940;2022-08-18T03:09:37;7.63;;;5.55;;
70335;SDS011;57756;47.408;18.940;2022-08-18T03:12:03;8.38;;;5.18;;
70335;SDS011;57756;47.408;18.940;2022-08-18T03:14:31;10.73;;;5.73;;
70335;SDS011;57756;47.408;18.940;2022-08-18T03:16:56;8.93;;;5.30;;
70335;SDS011;57756;47.408;18.940;2022-08-18T03:19:23;9.23;;;5.50;;
70335;SDS011;57756;47.408;18.940;2022-08-18T03:21:52;9.15;;;6.07;;
70335;SDS011;57756;47.408;18.940;2022-08-18T03:24:19;12.35;;;6.05;;
70335;SDS011;57756;47.408;18.940;2022-08-18T03:26:45;12.68;;;6.05;;
70335;SDS011;57756;47.408;18.940;2022-08-18T03:29:11;11.87;;;5.63;;
70335;SDS011;57756;47.408;18.940;2022-08-18T03:31:37;11.05;;;5.88;;
70335;SDS011;57756;47.408;18.940;2022-08-18T03:34:03;10.98;;;5.70;;
70335;SDS011;57756;47.408;18.940;2022-08-18T03:36:32;13.73;;;5.83;;
70335;SDS011;57756;47.408;18.940;2022-08-18T03:39:03;11.70;;;5.80;;
70335;SDS011;57756;47.408;18.940;2022-08-18T03:41:32;11.50;;;5.70;;
70335;SDS011;57756;47.408;18.940;2022-08-18T03:43:59;9.43;;;6.18;;
70335;SDS011;57756;47.408;18.940;2022-08-18T03:46:25;13.27;;;6.40;;
70335;SDS011;57756;47.408;18.940;2022-08-18T03:48:51;9.73;;;6.35;;
70335;SDS011;57756;47.408;18.940;2022-08-18T03:51:18;10.93;;;5.88;;
70335;SDS011;57756;47.408;18.940;2022-08-18T03:53:49;9.85;;;6.15;;
70335;SDS011;57756;47.408;18.940;2022-08-18T03:56:17;9.27;;;5.43;;
70335;SDS011;57756;47.408;18.940;2022-08-18T03:58:51;10.65;;;6.50;;
70335;SDS011;57756;47.408;18.940;2022-08-18T04:01:19;11.85;;;6.28;;
70335;SDS011;57756;47.408;18.940;2022-08-18T04:03:48;8.88;;;5.75;;
70335;SDS011;57756;47.408;18.940;2022-08-18T04:06:19;9.50;;;5.80;;
70335;SDS011;57756;47.408;18.940;2022-08-18T04:08:47;11.27;;;5.63;;
70335;SDS011;57756;47.408;18.940;2022-08-18T04:11:15;10.35;;;6.05;;
70335;SDS011;57756;47.408;18.940;2022-08-18T04:13:41;10.90;;;6.55;;
70335;SDS011;57756;47.408;18.940;2022-08-18T04:16:08;9.57;;;5.35;;
70335;SDS011;57756;47.408;18.940;2022-08-18T04:18:33;11.33;;;5.80;;
70335;SDS011;57756;47.408;18.940;2022-08-18T04:21:03;10.63;;;6.32;;
70335;SDS011;57756;47.408;18.940;2022-08-18T04:23:32;11.35;;;5.78;;
70335;SDS011;57756;47.408;18.940;2022-08-18T04:25:59;13.30;;;6.20;;
70335;SDS011;57756;47.408;18.940;2022-08-18T04:28:26;12.73;;;5.90;;
70335;SDS011;57756;47.408;18.940;2022-08-18T04:30:52;11.32;;;6.00;;
70335;SDS011;57756;47.408;18.940;2022-08-18T04:33:19;8.85;;;5.53;;
70335;SDS011;57756;47.408;18.940;2022-08-18T04:35:45;9.43;;;6.00;;
70335;SDS011;57756;47.408;18.940;2022-08-18T04:38:11;8.53;;;5.90;;
70335;SDS011;57756;47.408;18.940;2022-08-18T04:40:37;9.95;;;6.13;;
70335;SDS011;57756;47.408;18.940;2022-08-18T04:43:05;8.27;;;5.93;;
70335;SDS011;57756;47.408;18.940;2022-08-18T04:45:35;9.68;;;5.88;;
70335;SDS011;57756;47.408;18.940;2022-08-18T04:48:03;9.07;;;5.43;;
70335;SDS011;57756;47.408;18.940;2022-08-18T04:50:28;7.97;;;6.03;;
70335;SDS011;57756;47.408;18.940;2022-08-18T04:52:54;8.30;;;5.70;;
70335;SDS011;57756;47.408;18.940;2022-08-18T04:55:38;12.52;;;6.25;;
70335;SDS011;57756;47.408;18.940;2022-08-18T04:58:10;9.60;;;6.03;;
70335;SDS011;57756;47.408;18.940;2022-08-18T05:00:36;11.87;;;5.93;;
70335;SDS011;57756;47.408;18.940;2022-08-18T05:03:01;10.37;;;5.87;;
70335;SDS011;57756;47.408;18.940;2022-08-18T05:05:27;10.52;;;5.82;;
70335;SDS011;57756;47.408;18.940;2022-08-18T05:07:52;12.13;;;5.53;;
70335;SDS011;57756;47.408;18.940;2022-08-18T05:10:18;8.35;;;5.70;;
70335;SDS011;57756;47.408;18.940;2022-08-18T05:12:45;9.23;;;5.73;;
70335;SDS011;57756;47.408;18.940;2022-08-18T05:15:11;8.07;;;4.88;;
70335;SDS011;57756;47.408;18.940;2022-08-18T05:17:37;8.50;;;5.67;;
70335;SDS011;57756;47.408;18.940;2022-08-18T05:20:05;7.38;;;5.35;;
70335;SDS011;57756;47.408;18.940;2022-08-18T05:22:35;7.20;;;5.50;;
70335;SDS011;57756;47.408;18.940;2022-08-18T05:25:05;8.17;;;5.60;;
70335;SDS011;57756;47.408;18.940;2022-08-18T05:27:33;8.80;;;5.53;;
70335;SDS011;57756;47.408;18.940;2022-08-18T05:30:00;8.55;;;5.68;;
70335;SDS011;57756;47.408;18.940;2022-08-18T05:32:26;8.20;;;5.80;;
70335;SDS011;57756;47.408;18.940;2022-08-18T05:34:55;8.10;;;5.47;;
70335;SDS011;57756;47.408;18.940;2022-08-18T05:37:35;10.27;;;6.10;;
70335;SDS011;57756;47.408;18.940;2022-08-18T05:40:21;8.20;;;5.20;;
70335;SDS011;57756;47.408;18.940;2022-08-18T05:42:48;8.40;;;5.22;;
70335;SDS011;57756;47.408;18.940;2022-08-18T05:45:16;7.22;;;5.25;;
70335;SDS011;57756;47.408;18.940;2022-08-18T05:47:43;9.50;;;5.40;;
70335;SDS011;57756;47.408;18.940;2022-08-18T05:50:13;7.57;;;5.00;;
70335;SDS011;57756;47.408;18.940;2022-08-18T05:55:17;9.68;;;5.03;;
70335;SDS011;57756;47.408;18.940;2022-08-18T05:58:11;9.03;;;6.27;;
70335;SDS011;57756;47.408;18.940;2022-08-18T06:00:42;9.27;;;5.13;;
70335;SDS011;57756;47.408;18.940;2022-08-18T06:03:20;8.13;;;5.07;;
70335;SDS011;57756;47.408;18.940;2022-08-18T06:05:59;8.23;;;4.97;;
70335;SDS011;57756;47.408;18.940;2022-08-18T06:08:28;8.07;;;5.25;;
70335;SDS011;57756;47.408;18.940;2022-08-18T06:10:59;8.27;;;5.10;;
70335;SDS011;57756;47.408;18.940;2022-08-18T06:13:24;7.63;;;5.25;;
70335;SDS011;57756;47.408;18.940;2022-08-18T06:21:09;8.75;;;5.25;;
70335;SDS011;57756;47.408;18.940;2022-08-18T06:23:44;7.35;;;4.93;;
70335;SDS011;57756;47.408;18.940;2022-08-18T06:26:34;6.90;;;4.73;;
70335;SDS011;57756;47.408;18.940;2022-08-18T06:35:34;10.13;;;5.07;;
70335;SDS011;57756;47.408;18.940;2022-08-18T06:43:35;6.65;;;5.15;;
70335;SDS011;57756;47.408;18.940;2022-08-18T06:46:06;8.57;;;5.88;;
70335;SDS011;57756;47.408;18.940;2022-08-18T06:48:36;6.55;;;5.32;;
70335;SDS011;57756;47.408;18.940;2022-08-18T06:51:08;7.40;;;4.93;;
70335;SDS011;57756;47.408;18.940;2022-08-18T06:56:35;9.82;;;5.53;;
70335;SDS011;57756;47.408;18.940;2022-08-18T07:01:42;8.65;;;5.50;;
70335;SDS011;57756;47.408;18.940;2022-08-18T07:04:12;6.80;;;5.07;;
70335;SDS011;57756;47.408;18.940;2022-08-18T07:06:55;6.23;;;4.77;;
70335;SDS011;57756;47.408;18.940;2022-08-18T07:09:22;8.63;;;4.60;;
70335;SDS011;57756;47.408;18.940;2022-08-18T07:12:00;6.07;;;4.50;;
70335;SDS011;57756;47.408;18.940;2022-08-18T07:14:31;6.67;;;4.80;;
70335;SDS011;57756;47.408;18.940;2022-08-18T07:17:06;8.48;;;5.00;;
70335;SDS011;57756;47.408;18.940;2022-08-18T07:19:34;6.43;;;4.93;;
70335;SDS011;57756;47.408;18.940;2022-08-18T07:24:38;6.53;;;4.90;;
70335;SDS011;57756;47.408;18.940;2022-08-18T07:27:13;6.00;;;4.65;;
70335;SDS011;57756;47.408;18.940;2022-08-18T07:29:58;6.70;;;4.97;;
70335;SDS011;57756;47.408;18.940;2022-08-18T07:32:33;5.87;;;4.63;;
70335;SDS011;57756;47.408;18.940;2022-08-18T07:35:01;7.50;;;5.28;;
70335;SDS011;57756;47.408;18.940;2022-08-18T07:37:31;7.90;;;5.10;;
70335;SDS011;57756;47.408;18.940;2022-08-18T07:40:24;9.90;;;4.90;;
70335;SDS011;57756;47.408;18.940;2022-08-18T07:42:53;6.60;;;5.00;;
70335;SDS011;57756;47.408;18.940;2022-08-18T07:45:32;7.40;;;4.97;;
70335;SDS011;57756;47.408;18.940;2022-08-18T07:48:09;6.93;;;5.03;;
70335;SDS011;57756;47.408;18.940;2022-08-18T08:02:10;6.38;;;5.18;;
70335;SDS011;57756;47.408;18.940;2022-08-18T08:07:34;7.35;;;5.13;;
70335;SDS011;57756;47.408;18.940;2022-08-18T08:16:26;7.10;;;5.10;;
70335;SDS011;57756;47.408;18.940;2022-08-18T08:21:32;7.88;;;5.18;;
70335;SDS011;57756;47.408;18.940;2022-08-18T08:24:38;6.53;;;4.50;;
70335;SDS011;57756;47.408;18.940;2022-08-18T08:27:23;7.00;;;4.53;;
70335;SDS011;57756;47.408;18.940;2022-08-18T08:32:33;7.40;;;4.40;;
70335;SDS011;57756;47.408;18.940;2022-08-18T08:35:07;6.97;;;4.72;;
70335;SDS011;57756;47.408;18.940;2022-08-18T08:37:53;5.38;;;4.53;;
70335;SDS011;57756;47.408;18.940;2022-08-18T08:40:25;7.23;;;5.20;;
70335;SDS011;57756;47.408;18.940;2022-08-18T08:43:01;6.35;;;4.65;;
70335;SDS011;57756;47.408;18.940;2022-08-18T08:45:33;7.28;;;5.05;;
70335;SDS011;57756;47.408;18.940;2022-08-18T08:48:04;8.48;;;4.82;;
70335;SDS011;57756;47.408;18.940;2022-08-18T08:50:37;7.55;;;4.78;;
70335;SDS011;57756;47.408;18.940;2022-08-18T08:53:30;7.77;;;4.67;;
70335;SDS011;57756;47.408;18.940;2022-08-18T08:56:00;6.70;;;4.45;;
70335;SDS011;57756;47.408;18.940;2022-08-18T09:01:04;6.10;;;4.43;;
70335;SDS011;57756;47.408;18.940;2022-08-18T09:03:38;5.22;;;4.13;;
70335;SDS011;57756;47.408;18.940;2022-08-18T09:09:02;7.32;;;4.60;;
70335;SDS011;57756;47.408;18.940;2022-08-18T09:25:55;5.50;;;4.60;;
70335;SDS011;57756;47.408;18.940;2022-08-18T09:36:26;8.77;;;4.53;;
70335;SDS011;57756;47.408;18.940;2022-08-18T09:39:20;5.22;;;4.05;;
70335;SDS011;57756;47.408;18.940;2022-08-18T09:42:33;5.57;;;3.90;;
70335;SDS011;57756;47.408;18.940;2022-08-18T09:52:54;5.38;;;4.28;;
70335;SDS011;57756;47.408;18.940;2022-08-18T09:57:47;5.93;;;4.30;;
70335;SDS011;57756;47.408;18.940;2022-08-18T10:00:38;6.22;;;5.13;;
70335;SDS011;57756;47.408;18.940;2022-08-18T10:03:09;5.10;;;4.13;;
70335;SDS011;57756;47.408;18.940;2022-08-18T10:05:38;5.55;;;3.97;;
70335;SDS011;57756;47.408;18.940;2022-08-18T10:10:44;5.72;;;4.50;;
70335;SDS011;57756;47.408;18.940;2022-08-18T10:21:20;5.53;;;3.42;;
70335;SDS011;57756;47.408;18.940;2022-08-18T10:31:27;4.80;;;3.60;;
70335;SDS011;57756;47.408;18.940;2022-08-18T10:34:07;4.30;;;3.50;;
70335;SDS011;57756;47.408;18.940;2022-08-18T10:36:39;4.72;;;3.70;;
70335;SDS011;57756;47.408;18.940;2022-08-18T10:39:11;4.03;;;3.58;;
70335;SDS011;57756;47.408;18.940;2022-08-18T10:41:45;6.00;;;3.80;;
70335;SDS011;57756;47.408;18.940;2022-08-18T10:44:18;5.45;;;3.75;;
70335;SDS011;57756;47.408;18.940;2022-08-18T10:46:46;4.30;;;3.67;;
70335;SDS011;57756;47.408;18.940;2022-08-18T10:57:09;5.20;;;3.20;;
70335;SDS011;57756;47.408;18.940;2022-08-18T11:04:58;4.53;;;3.72;;
70335;SDS011;57756;47.408;18.940;2022-08-18T11:07:34;5.03;;;3.22;;
70335;SDS011;57756;47.408;18.940;2022-08-18T11:09:59;5.67;;;3.47;;
70335;SDS011;57756;47.408;18.940;2022-08-18T11:15:43;4.07;;;3.67;;
70335;SDS011;57756;47.408;18.940;2022-08-18T11:26:45;5.50;;;4.15;;
70335;SDS011;57756;47.408;18.940;2022-08-18T11:29:20;5.03;;;3.47;;
70335;SDS011;57756;47.408;18.940;2022-08-18T11:34:49;5.00;;;3.83;;
70335;SDS011;57756;47.408;18.940;2022-08-18T11:37:31;4.73;;;3.73;;
70335;SDS011;57756;47.408;18.940;2022-08-18T11:40:04;5.20;;;4.05;;
70335;SDS011;57756;47.408;18.940;2022-08-18T11:42:36;4.28;;;3.63;;
70335;SDS011;57756;47.408;18.940;2022-08-18T11:45:15;5.20;;;3.90;;
70335;SDS011;57756;47.408;18.940;2022-08-18T11:47:59;6.10;;;3.63;;
70335;SDS011;57756;47.408;18.940;2022-08-18T11:50:26;5.13;;;3.73;;
70335;SDS011;57756;47.408;18.940;2022-08-18T11:52:53;6.57;;;3.78;;
70335;SDS011;57756;47.408;18.940;2022-08-18T11:55:28;5.65;;;3.72;;
70335;SDS011;57756;47.408;18.940;2022-08-18T11:57:57;6.50;;;3.90;;
70335;SDS011;57756;47.408;18.940;2022-08-18T12:00:38;5.30;;;3.50;;
70335;SDS011;57756;47.408;18.940;2022-08-18T12:05:40;4.75;;;3.58;;
70335;SDS011;57756;47.408;18.940;2022-08-18T12:08:22;5.18;;;3.20;;
70335;SDS011;57756;47.408;18.940;2022-08-18T12:11:01;6.07;;;3.50;;
70335;SDS011;57756;47.408;18.940;2022-08-18T12:13:42;4.30;;;2.75;;
70335;SDS011;57756;47.408;18.940;2022-08-18T12:16:14;5.47;;;3.20;;
70335;SDS011;57756;47.408;18.940;2022-08-18T12:18:54;5.55;;;3.22;;
70335;SDS011;57756;47.408;18.940;2022-08-18T12:21:19;5.47;;;3.50;;
70335;SDS011;57756;47.408;18.940;2022-08-18T12:23:45;4.93;;;3.28;;
70335;SDS011;57756;47.408;18.940;2022-08-18T12:26:12;9.35;;;3.15;;
70335;SDS011;57756;47.408;18.940;2022-08-18T12:28:39;4.50;;;2.77;;
70335;SDS011;57756;47.408;18.940;2022-08-18T12:31:05;4.00;;;2.90;;
70335;SDS011;57756;47.408;18.940;2022-08-18T12:33:31;4.60;;;3.25;;
70335;SDS011;57756;47.408;18.940;2022-08-18T12:35:58;6.88;;;3.25;;
70335;SDS011;57756;47.408;18.940;2022-08-18T12:38:24;3.80;;;2.85;;
70335;SDS011;57756;47.408;18.940;2022-08-18T12:40:50;4.80;;;3.37;;
70335;SDS011;57756;47.408;18.940;2022-08-18T12:43:16;6.95;;;3.30;;
70335;SDS011;57756;47.408;18.940;2022-08-18T12:45:41;4.87;;;3.10;;
70335;SDS011;57756;47.408;18.940;2022-08-18T12:48:07;5.03;;;3.00;;
70335;SDS011;57756;47.408;18.940;2022-08-18T12:50:33;4.53;;;2.70;;
70335;SDS011;57756;47.408;18.940;2022-08-18T12:52:59;4.13;;;2.92;;
70335;SDS011;57756;47.408;18.940;2022-08-18T12:55:27;4.43;;;2.63;;
70335;SDS011;57756;47.408;18.940;2022-08-18T12:57:55;6.35;;;3.15;;
70335;SDS011;57756;47.408;18.940;2022-08-18T13:00:20;3.95;;;2.75;;
70335;SDS011;57756;47.408;18.940;2022-08-18T13:02:46;3.30;;;2.33;;
70335;SDS011;57756;47.408;18.940;2022-08-18T13:05:12;4.20;;;2.97;;
70335;SDS011;57756;47.408;18.940;2022-08-18T13:07:38;4.03;;;3.20;;
70335;SDS011;57756;47.408;18.940;2022-08-18T13:10:03;4.30;;;2.85;;
70335;SDS011;57756;47.408;18.940;2022-08-18T13:12:29;4.60;;;3.50;;
70335;SDS011;57756;47.408;18.940;2022-08-18T13:14:55;4.03;;;3.10;;
70335;SDS011;57756;47.408;18.940;2022-08-18T13:17:21;4.37;;;2.80;;
70335;SDS011;57756;47.408;18.940;2022-08-18T13:19:46;4.67;;;3.03;;
70335;SDS011;57756;47.408;18.940;2022-08-18T13:22:12;4.90;;;2.77;;
70335;SDS011;57756;47.408;18.940;2022-08-18T13:24:37;4.10;;;2.40;;
70335;SDS011;57756;47.408;18.940;2022-08-18T13:27:03;4.67;;;2.70;;
70335;SDS011;57756;47.408;18.940;2022-08-18T13:29:29;5.30;;;2.65;;
70335;SDS011;57756;47.408;18.940;2022-08-18T13:31:54;4.70;;;2.73;;
70335;SDS011;57756;47.408;18.940;2022-08-18T13:34:23;4.20;;;2.63;;
70335;SDS011;57756;47.408;18.940;2022-08-18T13:36:52;4.28;;;2.60;;
70335;SDS011;57756;47.408;18.940;2022-08-18T13:39:19;4.03;;;2.63;;
70335;SDS011;57756;47.408;18.940;2022-08-18T13:41:48;4.70;;;2.60;;
70335;SDS011;57756;47.408;18.940;2022-08-18T13:44:17;6.47;;;2.88;;
70335;SDS011;57756;47.408;18.940;2022-08-18T13:46:44;4.57;;;2.92;;
70335;SDS011;57756;47.408;18.940;2022-08-18T13:49:11;3.97;;;2.70;;
70335;SDS011;57756;47.408;18.940;2022-08-18T13:51:39;3.78;;;2.63;;
70335;SDS011;57756;47.408;18.940;2022-08-18T13:54:06;4.67;;;2.57;;
70335;SDS011;57756;47.408;18.940;2022-08-18T13:56:32;5.95;;;2.50;;
70335;SDS011;57756;47.408;18.940;2022-08-18T13:58:58;4.00;;;2.57;;
70335;SDS011;57756;47.408;18.940;2022-08-18T14:01:23;3.70;;;2.30;;
70335;SDS011;57756;47.408;18.940;2022-08-18T14:03:49;3.20;;;2.13;;
70335;SDS011;57756;47.408;18.940;2022-08-18T14:06:15;7.27;;;2.60;;
70335;SDS011;57756;47.408;18.940;2022-08-18T14:08:41;5.97;;;2.35;;
70335;SDS011;57756;47.408;18.940;2022-08-18T14:11:07;5.10;;;2.53;;
70335;SDS011;57756;47.408;18.940;2022-08-18T14:13:33;4.55;;;2.50;;
70335;SDS011;57756;47.408;18.940;2022-08-18T14:15:58;6.27;;;2.23;;
70335;SDS011;57756;47.408;18.940;2022-08-18T14:18:25;3.83;;;2.30;;
70335;SDS011;57756;47.408;18.940;2022-08-18T14:20:53;5.43;;;2.38;;
70335;SDS011;57756;47.408;18.940;2022-08-18T14:23:37;6.10;;;2.20;;
70335;SDS011;57756;47.408;18.940;2022-08-18T14:26:21;3.58;;;2.25;;
70335;SDS011;57756;47.408;18.940;2022-08-18T14:29:05;5.18;;;2.15;;
70335;SDS011;57756;47.408;18.940;2022-08-18T14:31:31;4.13;;;1.93;;
70335;SDS011;57756;47.408;18.940;2022-08-18T14:33:57;5.18;;;2.25;;
70335;SDS011;57756;47.408;18.940;2022-08-18T14:36:22;3.80;;;2.23;;
70335;SDS011;57756;47.408;18.940;2022-08-18T14:38:49;4.60;;;2.40;;
70335;SDS011;57756;47.408;18.940;2022-08-18T14:41:14;5.25;;;2.17;;
70335;SDS011;57756;47.408;18.940;2022-08-18T14:43:40;4.78;;;2.42;;
70335;SDS011;57756;47.408;18.940;2022-08-18T14:46:09;6.65;;;2.50;;
70335;SDS011;57756;47.408;18.940;2022-08-18T14:48:38;3.53;;;2.10;;
70335;SDS011;57756;47.408;18.940;2022-08-18T14:51:04;8.20;;;2.13;;
70335;SDS011;57756;47.408;18.940;2022-08-18T14:53:32;3.63;;;2.05;;
70335;SDS011;57756;47.408;18.940;2022-08-18T14:56:00;5.75;;;2.33;;
70335;SDS011;57756;47.408;18.940;2022-08-18T14:58:27;3.95;;;2.10;;
70335;SDS011;57756;47.408;18.940;2022-08-18T15:00:55;5.13;;;2.33;;
70335;SDS011;57756;47.408;18.940;2022-08-18T15:03:22;5.35;;;2.00;;
70335;SDS011;57756;47.408;18.940;2022-08-18T15:05:48;5.68;;;2.30;;
70335;SDS011;57756;47.408;18.940;2022-08-18T15:08:14;3.33;;;2.00;;
70335;SDS011;57756;47.408;18.940;2022-08-18T15:10:39;5.20;;;1.88;;
70335;SDS011;57756;47.408;18.940;2022-08-18T15:13:05;4.07;;;2.17;;
70335;SDS011;57756;47.408;18.940;2022-08-18T15:15:32;3.60;;;1.80;;
70335;SDS011;57756;47.408;18.940;2022-08-18T15:17:58;5.45;;;2.08;;
70335;SDS011;57756;47.408;18.940;2022-08-18T15:20:24;4.30;;;1.85;;
70335;SDS011;57756;47.408;18.940;2022-08-18T15:22:50;3.33;;;2.00;;
70335;SDS011;57756;47.408;18.940;2022-08-18T15:25:35;3.90;;;1.85;;
70335;SDS011;57756;47.408;18.940;2022-08-18T15:28:16;3.55;;;1.90;;
70335;SDS011;57756;47.408;18.940;2022-08-18T15:30:44;5.18;;;1.77;;
70335;SDS011;57756;47.408;18.940;2022-08-18T15:33:11;3.05;;;1.75;;
70335;SDS011;57756;47.408;18.940;2022-08-18T15:35:39;4.13;;;2.00;;
70335;SDS011;57756;47.408;18.940;2022-08-18T15:38:06;3.75;;;2.00;;
70335;SDS011;57756;47.408;18.940;2022-08-18T15:40:32;6.03;;;2.08;;
70335;SDS011;57756;47.408;18.940;2022-08-18T15:42:58;4.20;;;2.03;;
70335;SDS011;57756;47.408;18.940;2022-08-18T15:45:28;3.97;;;2.10;;
70335;SDS011;57756;47.408;18.940;2022-08-18T15:48:03;3.78;;;2.15;;
70335;SDS011;57756;47.408;18.940;2022-08-18T15:50:29;5.05;;;2.10;;
70335;SDS011;57756;47.408;18.940;2022-08-18T15:52:58;5.00;;;2.17;;
70335;SDS011;57756;47.408;18.940;2022-08-18T15:55:28;5.38;;;2.40;;
70335;SDS011;57756;47.408;18.940;2022-08-18T15:57:55;4.20;;;2.17;;
70335;SDS011;57756;47.408;18.940;2022-08-18T16:00:21;3.50;;;1.92;;
70335;SDS011;57756;47.408;18.940;2022-08-18T16:02:48;3.63;;;1.80;;
70335;SDS011;57756;47.408;18.940;2022-08-18T16:05:21;5.07;;;2.20;;
70335;SDS011;57756;47.408;18.940;2022-08-18T16:07:48;4.90;;;2.05;;
70335;SDS011;57756;47.408;18.940;2022-08-18T16:10:15;5.95;;;2.20;;
70335;SDS011;57756;47.408;18.940;2022-08-18T16:12:42;5.72;;;2.15;;
70335;SDS011;57756;47.408;18.940;2022-08-18T16:15:08;4.60;;;2.20;;
70335;SDS011;57756;47.408;18.940;2022-08-18T16:17:34;3.33;;;1.80;;
70335;SDS011;57756;47.408;18.940;2022-08-18T16:20:00;4.60;;;2.30;;
70335;SDS011;57756;47.408;18.940;2022-08-18T16:22:26;4.67;;;1.83;;
70335;SDS011;57756;47.408;18.940;2022-08-18T16:24:52;4.53;;;2.20;;
70335;SDS011;57756;47.408;18.940;2022-08-18T16:27:18;3.73;;;2.00;;
70335;SDS011;57756;47.408;18.940;2022-08-18T16:29:44;4.78;;;1.90;;
70335;SDS011;57756;47.408;18.940;2022-08-18T16:32:10;4.05;;;2.10;;
70335;SDS011;57756;47.408;18.940;2022-08-18T16:34:36;4.43;;;2.57;;
70335;SDS011;57756;47.408;18.940;2022-08-18T16:37:02;3.90;;;1.92;;
70335;SDS011;57756;47.408;18.940;2022-08-18T16:39:28;3.90;;;1.80;;
70335;SDS011;57756;47.408;18.940;2022-08-18T16:41:57;3.90;;;2.05;;
70335;SDS011;57756;47.408;18.940;2022-08-18T16:44:23;4.65;;;2.15;;
70335;SDS011;57756;47.408;18.940;2022-08-18T16:46:48;3.37;;;1.90;;
70335;SDS011;57756;47.408;18.940;2022-08-18T16:49:15;3.97;;;2.25;;
70335;SDS011;57756;47.408;18.940;2022-08-18T16:51:43;3.92;;;1.92;;
70335;SDS011;57756;47.408;18.940;2022-08-18T16:54:09;4.53;;;2.13;;
70335;SDS011;57756;47.408;18.940;2022-08-18T16:56:35;3.90;;;2.30;;
70335;SDS011;57756;47.408;18.940;2022-08-18T16:59:01;4.18;;;1.90;;
70335;SDS011;57756;47.408;18.940;2022-08-18T17:01:45;6.47;;;1.93;;
70335;SDS011;57756;47.408;18.940;2022-08-18T17:04:30;3.17;;;2.00;;
70335;SDS011;57756;47.408;18.940;2022-08-18T17:06:59;6.32;;;2.05;;
70335;SDS011;57756;47.408;18.940;2022-08-18T17:09:29;4.45;;;2.10;;